sensor_id;sensor_type;location;lat;lon;timestamp;pressure;altitude;pressure_sealevel;temperature;humidity
53619;BME280;39505;53.040;18.488;2022-10-17T00:00:07;102093.91;;;9.40;100.00
53619;BME280;39505;53.040;18.488;2022-10-17T00:00:40;102090.38;;;9.39;100.00
53619;BME280;39505;53.040;18.488;2022-10-17T00:01:13;102098.41;;;9.39;100.00
53619;BME280;39505;53.040;18.488;2022-10-17T00:01:26;102095.75;;;9.39;100.00
53619;BME280;39505;53.040;18.488;2022-10-17T00:01:39;102095.75;;;9.39;100.00
53619;BME280;39505;53.040;18.488;2022-10-17T00:01:51;102099.38;;;9.38;100.00
53619;BME280;39505;53.040;18.488;2022-10-17T00:02:04;102092.19;;;9.39;100.00
53619;BME280;39505;53.040;18.488;2022-10-17T00:02:17;102103.75;;;9.39;100.00
53619;BME280;39505;53.040;18.488;2022-10-17T00:02:31;102102.91;;;9.39;100.00
53619;BME280;39505;53.040;18.488;2022-10-17T00:02:43;102102.91;;;9.39;100.00
53619;BME280;39505;53.040;18.488;2022-10-17T00:02:56;102099.28;;;9.40;100.00
53619;BME280;39505;53.040;18.488;2022-10-17T00:03:09;102102.91;;;9.39;100.00
53619;BME280;39505;53.040;18.488;2022-10-17T00:03:22;102100.22;;;9.39;100.00
53619;BME280;39505;53.040;18.488;2022-10-17T00:03:35;102093.91;;;9.40;100.00
53619;BME280;39505;53.040;18.488;2022-10-17T00:03:49;102097.47;;;9.40;100.00
53619;BME280;39505;53.040;18.488;2022-10-17T00:04:01;102097.47;;;9.40;100.00
53619;BME280;39505;53.040;18.488;2022-10-17T00:04:15;102100.16;;;9.40;100.00
53619;BME280;39505;53.040;18.488;2022-10-17T00:04:28;102099.28;;;9.40;100.00
53619;BME280;39505;53.040;18.488;2022-10-17T00:04:41;102099.28;;;9.40;100.00
53619;BME280;39505;53.040;18.488;2022-10-17T00:04:53;102105.50;;;9.40;100.00
53619;BME280;39505;53.040;18.488;2022-10-17T00:05:06;102094.81;;;9.40;100.00
53619;BME280;39505;53.040;18.488;2022-10-17T00:05:19;102101.94;;;9.40;100.00
53619;BME280;39505;53.040;18.488;2022-10-17T00:05:33;102099.28;;;9.40;100.00
53619;BME280;39505;53.040;18.488;2022-10-17T00:05:51;102096.59;;;9.40;100.00
53619;BME280;39505;53.040;18.488;2022-10-17T00:06:05;102095.75;;;9.39;100.00
53619;BME280;39505;53.040;18.488;2022-10-17T00:06:18;102092.19;;;9.39;100.00
53619;BME280;39505;53.040;18.488;2022-10-17T00:06:31;102098.41;;;9.39;100.00
53619;BME280;39505;53.040;18.488;2022-10-17T00:06:43;102097.56;;;9.39;100.00
53619;BME280;39505;53.040;18.488;2022-10-17T00:06:56;102095.75;;;9.39;100.00
53619;BME280;39505;53.040;18.488;2022-10-17T00:07:09;102096.69;;;9.38;100.00
53619;BME280;39505;53.040;18.488;2022-10-17T00:07:22;102091.34;;;9.38;100.00
53619;BME280;39505;53.040;18.488;2022-10-17T00:07:36;102100.31;;;9.37;100.00
53619;BME280;39505;53.040;18.488;2022-10-17T00:07:48;102096.69;;;9.38;100.00
53619;BME280;39505;53.040;18.488;2022-10-17T00:08:01;102094.97;;;9.37;100.00
53619;BME280;39505;53.040;18.488;2022-10-17T00:08:15;102094.13;;;9.37;100.00
53619;BME280;39505;53.040;18.488;2022-10-17T00:08:28;102095.81;;;9.38;100.00
53619;BME280;39505;53.040;18.488;2022-10-17T00:08:42;102095.03;;;9.36;100.00
53619;BME280;39505;53.040;18.488;2022-10-17T00:08:56;102089.69;;;9.36;100.00
53619;BME280;39505;53.040;18.488;2022-10-17T00:09:09;102089.69;;;9.36;100.00
53619;BME280;39505;53.040;18.488;2022-10-17T00:09:22;102095.03;;;9.36;100.00
53619;BME280;39505;53.040;18.488;2022-10-17T00:09:34;102084.34;;;9.36;100.00
53619;BME280;39505;53.040;18.488;2022-10-17T00:09:47;102088.84;;;9.35;100.00
53619;BME280;39505;53.040;18.488;2022-10-17T00:10:00;102081.66;;;9.36;100.00
53619;BME280;39505;53.040;18.488;2022-10-17T00:10:12;102092.38;;;9.36;100.00
53619;BME280;39505;53.040;18.488;2022-10-17T00:10:25;102095.03;;;9.36;100.00
53619;BME280;39505;53.040;18.488;2022-10-17T00:10:38;102089.81;;;9.34;100.00
53619;BME280;39505;53.040;18.488;2022-10-17T00:10:55;102088.00;;;9.35;100.00
53619;BME280;39505;53.040;18.488;2022-10-17T00:11:13;102079.97;;;9.35;100.00
53619;BME280;39505;53.040;18.488;2022-10-17T00:11:26;102082.72;;;9.33;100.00
53619;BME280;39505;53.040;18.488;2022-10-17T00:11:39;102085.31;;;9.35;100.00
53619;BME280;39505;53.040;18.488;2022-10-17T00:11:52;102089.81;;;9.34;100.00
53619;BME280;39505;53.040;18.488;2022-10-17T00:12:05;102087.13;;;9.34;100.00
53619;BME280;39505;53.040;18.488;2022-10-17T00:12:17;102079.09;;;9.34;100.00
53619;BME280;39505;53.040;18.488;2022-10-17T00:12:31;102085.31;;;9.35;100.00
53619;BME280;39505;53.040;18.488;2022-10-17T00:12:44;102080.91;;;9.34;100.00
53619;BME280;39505;53.040;18.488;2022-10-17T00:12:57;102085.31;;;9.35;100.00
53619;BME280;39505;53.040;18.488;2022-10-17T00:13:10;102082.63;;;9.35;100.00
53619;BME280;39505;53.040;18.488;2022-10-17T00:13:24;102082.63;;;9.35;100.00
53619;BME280;39505;53.040;18.488;2022-10-17T00:13:37;102088.75;;;9.37;100.00
53619;BME280;39505;53.040;18.488;2022-10-17T00:13:54;102087.00;;;9.36;100.00
53619;BME280;39505;53.040;18.488;2022-10-17T00:14:07;102081.59;;;9.37;100.00
53619;BME280;39505;53.040;18.488;2022-10-17T00:14:20;102084.34;;;9.36;100.00
53619;BME280;39505;53.040;18.488;2022-10-17T00:14:32;102078.91;;;9.37;100.00
53619;BME280;39505;53.040;18.488;2022-10-17T00:14:45;102078.06;;;9.37;100.00
53619;BME280;39505;53.040;18.488;2022-10-17T00:14:58;102080.72;;;9.37;100.00
53619;BME280;39505;53.040;18.488;2022-10-17T00:15:14;102080.72;;;9.37;100.00
53619;BME280;39505;53.040;18.488;2022-10-17T00:15:28;102078.06;;;9.37;100.00
53619;BME280;39505;53.040;18.488;2022-10-17T00:15:42;102078.91;;;9.37;100.00
53619;BME280;39505;53.040;18.488;2022-10-17T00:15:55;102085.13;;;9.38;100.00
53619;BME280;39505;53.040;18.488;2022-10-17T00:16:08;102073.56;;;9.37;100.00
53619;BME280;39505;53.040;18.488;2022-10-17T00:16:25;102074.59;;;9.35;100.00
53619;BME280;39505;53.040;18.488;2022-10-17T00:16:38;102078.06;;;9.37;100.00
53619;BME280;39505;53.040;18.488;2022-10-17T00:16:52;102077.09;;;9.38;100.00
53619;BME280;39505;53.040;18.488;2022-10-17T00:17:04;102081.59;;;9.37;100.00
53619;BME280;39505;53.040;18.488;2022-10-17T00:17:17;102085.13;;;9.38;100.00
53619;BME280;39505;53.040;18.488;2022-10-17T00:17:30;102083.41;;;9.37;100.00
53619;BME280;39505;53.040;18.488;2022-10-17T00:17:43;102080.81;;;9.35;100.00
53619;BME280;39505;53.040;18.488;2022-10-17T00:17:56;102076.31;;;9.36;100.00
53619;BME280;39505;53.040;18.488;2022-10-17T00:18:09;102072.78;;;9.35;100.00
53619;BME280;39505;53.040;18.488;2022-10-17T00:18:22;102077.28;;;9.35;100.00
53619;BME280;39505;53.040;18.488;2022-10-17T00:18:35;102079.97;;;9.35;100.00
53619;BME280;39505;53.040;18.488;2022-10-17T00:18:48;102075.53;;;9.34;100.00
53619;BME280;39505;53.040;18.488;2022-10-17T00:19:01;102079.09;;;9.34;100.00
53619;BME280;39505;53.040;18.488;2022-10-17T00:19:14;102076.44;;;9.34;100.00
53619;BME280;39505;53.040;18.488;2022-10-17T00:19:26;102080.03;;;9.33;100.00
53619;BME280;39505;53.040;18.488;2022-10-17T00:19:39;102078.22;;;9.34;100.00
53619;BME280;39505;53.040;18.488;2022-10-17T00:19:52;102074.69;;;9.33;100.00
53619;BME280;39505;53.040;18.488;2022-10-17T00:20:07;102076.50;;;9.33;100.00
53619;BME280;39505;53.040;18.488;2022-10-17T00:20:19;102080.03;;;9.33;100.00
53619;BME280;39505;53.040;18.488;2022-10-17T00:20:35;102077.38;;;9.33;100.00
53619;BME280;39505;53.040;18.488;2022-10-17T00:20:47;102072.88;;;9.34;100.00
53619;BME280;39505;53.040;18.488;2022-10-17T00:21:00;102069.34;;;9.33;100.00
53619;BME280;39505;53.040;18.488;2022-10-17T00:21:17;102077.38;;;9.33;100.00
53619;BME280;39505;53.040;18.488;2022-10-17T00:21:31;102079.19;;;9.33;100.00
53619;BME280;39505;53.040;18.488;2022-10-17T00:21:44;102074.78;;;9.32;100.00
53619;BME280;39505;53.040;18.488;2022-10-17T00:21:57;102081.88;;;9.33;100.00
53619;BME280;39505;53.040;18.488;2022-10-17T00:22:09;102072.09;;;9.32;100.00
53619;BME280;39505;53.040;18.488;2022-10-17T00:22:22;102082.72;;;9.33;100.00
53619;BME280;39505;53.040;18.488;2022-10-17T00:22:35;102076.50;;;9.33;100.00
53619;BME280;39505;53.040;18.488;2022-10-17T00:22:52;102076.50;;;9.33;100.00
53619;BME280;39505;53.040;18.488;2022-10-17T00:23:05;102081.88;;;9.33;100.00
53619;BME280;39505;53.040;18.488;2022-10-17T00:23:19;102083.56;;;9.34;100.00
53619;BME280;39505;53.040;18.488;2022-10-17T00:23:32;102083.56;;;9.34;100.00
53619;BME280;39505;53.040;18.488;2022-10-17T00:23:45;102088.91;;;9.34;100.00
53619;BME280;39505;53.040;18.488;2022-10-17T00:23:58;102085.38;;;9.33;100.00
53619;BME280;39505;53.040;18.488;2022-10-17T00:24:11;102093.34;;;9.35;100.00
53619;BME280;39505;53.040;18.488;2022-10-17T00:24:23;102087.13;;;9.34;100.00
53619;BME280;39505;53.040;18.488;2022-10-17T00:24:36;102085.31;;;9.35;100.00
53619;BME280;39505;53.040;18.488;2022-10-17T00:24:50;102085.31;;;9.35;100.00
53619;BME280;39505;53.040;18.488;2022-10-17T00:25:03;102082.72;;;9.33;100.00
53619;BME280;39505;53.040;18.488;2022-10-17T00:25:16;102093.34;;;9.35;100.00
53619;BME280;39505;53.040;18.488;2022-10-17T00:25:29;102088.91;;;9.34;100.00
53619;BME280;39505;53.040;18.488;2022-10-17T00:25:42;102089.81;;;9.34;100.00
53619;BME280;39505;53.040;18.488;2022-10-17T00:25:58;102095.16;;;9.34;100.00
53619;BME280;39505;53.040;18.488;2022-10-17T00:26:12;102092.50;;;9.34;100.00
53619;BME280;39505;53.040;18.488;2022-10-17T00:26:26;102099.63;;;9.34;100.00
53619;BME280;39505;53.040;18.488;2022-10-17T00:26:39;102091.59;;;9.34;100.00
53619;BME280;39505;53.040;18.488;2022-10-17T00:26:52;102094.28;;;9.34;100.00
53619;BME280;39505;53.040;18.488;2022-10-17T00:27:05;102094.28;;;9.34;100.00
53619;BME280;39505;53.040;18.488;2022-10-17T00:27:18;102097.84;;;9.34;100.00
53619;BME280;39505;53.040;18.488;2022-10-17T00:27:33;102098.78;;;9.33;100.00
53619;BME280;39505;53.040;18.488;2022-10-17T00:27:46;102091.59;;;9.34;100.00
53619;BME280;39505;53.040;18.488;2022-10-17T00:27:59;102100.50;;;9.34;100.00
53619;BME280;39505;53.040;18.488;2022-10-17T00:28:14;102099.63;;;9.34;100.00
53619;BME280;39505;53.040;18.488;2022-10-17T00:28:27;102097.91;;;9.33;100.00
53619;BME280;39505;53.040;18.488;2022-10-17T00:28:40;102097.91;;;9.33;100.00
53619;BME280;39505;53.040;18.488;2022-10-17T00:28:52;102101.53;;;9.32;100.00
53619;BME280;39505;53.040;18.488;2022-10-17T00:29:05;102104.22;;;9.32;100.00
53619;BME280;39505;53.040;18.488;2022-10-17T00:29:18;102094.47;;;9.31;100.00
53619;BME280;39505;53.040;18.488;2022-10-17T00:29:32;102100.69;;;9.31;100.00
53619;BME280;39505;53.040;18.488;2022-10-17T00:29:47;102101.53;;;9.32;100.00
53619;BME280;39505;53.040;18.488;2022-10-17T00:30:00;102102.41;;;9.32;100.00
53619;BME280;39505;53.040;18.488;2022-10-17T00:30:14;102102.41;;;9.32;100.00
53619;BME280;39505;53.040;18.488;2022-10-17T00:30:27;102091.72;;;9.32;100.00
53619;BME280;39505;53.040;18.488;2022-10-17T00:30:40;102105.94;;;9.33;100.00
53619;BME280;39505;53.040;18.488;2022-10-17T00:30:56;102093.50;;;9.32;100.00
53619;BME280;39505;53.040;18.488;2022-10-17T00:31:10;102100.59;;;9.33;100.00
53619;BME280;39505;53.040;18.488;2022-10-17T00:31:23;102098.00;;;9.31;100.00
53619;BME280;39505;53.040;18.488;2022-10-17T00:31:36;102098.84;;;9.32;100.00
53619;BME280;39505;53.040;18.488;2022-10-17T00:31:49;102101.53;;;9.32;100.00
53619;BME280;39505;53.040;18.488;2022-10-17T00:32:10;102093.63;;;9.30;100.00
53619;BME280;39505;53.040;18.488;2022-10-17T00:32:22;102098.13;;;9.30;100.00
53619;BME280;39505;53.040;18.488;2022-10-17T00:32:37;102091.03;;;9.29;100.00
53619;BME280;39505;53.040;18.488;2022-10-17T00:32:49;102093.69;;;9.29;100.00
53619;BME280;39505;53.040;18.488;2022-10-17T00:33:02;102090.25;;;9.27;100.00
53619;BME280;39505;53.040;18.488;2022-10-17T00:33:15;102096.56;;;9.26;100.00
53619;BME280;39505;53.040;18.488;2022-10-17T00:33:28;102096.56;;;9.26;100.00
53619;BME280;39505;53.040;18.488;2022-10-17T00:33:42;102089.47;;;9.24;100.00
53619;BME280;39505;53.040;18.488;2022-10-17T00:33:55;102098.47;;;9.23;100.00
53619;BME280;39505;53.040;18.488;2022-10-17T00:34:08;102093.13;;;9.23;100.00
53619;BME280;39505;53.040;18.488;2022-10-17T00:34:21;102098.47;;;9.23;100.00
53619;BME280;39505;53.040;18.488;2022-10-17T00:34:33;102098.47;;;9.23;100.00
53619;BME280;39505;53.040;18.488;2022-10-17T00:34:46;102093.13;;;9.23;100.00
53619;BME280;39505;53.040;18.488;2022-10-17T00:34:59;102090.44;;;9.23;100.00
53619;BME280;39505;53.040;18.488;2022-10-17T00:35:11;102098.47;;;9.23;100.00
53619;BME280;39505;53.040;18.488;2022-10-17T00:35:24;102095.81;;;9.23;100.00
53619;BME280;39505;53.040;18.488;2022-10-17T00:35:38;102094.81;;;9.24;100.00
53619;BME280;39505;53.040;18.488;2022-10-17T00:36:01;102097.44;;;9.26;100.00
53619;BME280;39505;53.040;18.488;2022-10-17T00:36:16;102099.25;;;9.26;100.00
53619;BME280;39505;53.040;18.488;2022-10-17T00:36:30;102099.25;;;9.26;100.00
53619;BME280;39505;53.040;18.488;2022-10-17T00:36:42;102100.09;;;9.26;100.00
53619;BME280;39505;53.040;18.488;2022-10-17T00:36:55;102103.63;;;9.27;100.00
53619;BME280;39505;53.040;18.488;2022-10-17T00:37:08;102098.28;;;9.27;100.00
53619;BME280;39505;53.040;18.488;2022-10-17T00:37:22;102105.38;;;9.28;100.00
53619;BME280;39505;53.040;18.488;2022-10-17T00:37:34;102109.84;;;9.27;100.00
53619;BME280;39505;53.040;18.488;2022-10-17T00:37:47;102105.38;;;9.28;100.00
53619;BME280;39505;53.040;18.488;2022-10-17T00:38:00;102106.22;;;9.28;100.00
53619;BME280;39505;53.040;18.488;2022-10-17T00:38:12;102106.31;;;9.27;100.00
53619;BME280;39505;53.040;18.488;2022-10-17T00:38:25;102103.63;;;9.27;100.00
53619;BME280;39505;53.040;18.488;2022-10-17T00:38:38;102104.59;;;9.26;100.00
53619;BME280;39505;53.040;18.488;2022-10-17T00:38:54;102106.31;;;9.27;100.00
53619;BME280;39505;53.040;18.488;2022-10-17T00:39:08;102110.72;;;9.28;100.00
53619;BME280;39505;53.040;18.488;2022-10-17T00:39:21;102103.63;;;9.27;100.00
53619;BME280;39505;53.040;18.488;2022-10-17T00:39:33;102106.22;;;9.28;100.00
53619;BME280;39505;53.040;18.488;2022-10-17T00:39:46;102106.22;;;9.28;100.00
53619;BME280;39505;53.040;18.488;2022-10-17T00:39:59;102107.09;;;9.29;100.00
53619;BME280;39505;53.040;18.488;2022-10-17T00:40:12;102112.44;;;9.29;100.00
53619;BME280;39505;53.040;18.488;2022-10-17T00:40:26;102108.81;;;9.30;100.00
53619;BME280;39505;53.040;18.488;2022-10-17T00:40:38;102108.81;;;9.30;100.00
53619;BME280;39505;53.040;18.488;2022-10-17T00:40:51;102103.47;;;9.30;100.00
53619;BME280;39505;53.040;18.488;2022-10-17T00:41:06;102106.16;;;9.30;100.00
53619;BME280;39505;53.040;18.488;2022-10-17T00:41:21;102107.84;;;9.31;100.00
53619;BME280;39505;53.040;18.488;2022-10-17T00:41:34;102104.22;;;9.32;100.00
53619;BME280;39505;53.040;18.488;2022-10-17T00:41:48;102106.88;;;9.32;100.00
53619;BME280;39505;53.040;18.488;2022-10-17T00:42:01;102107.78;;;9.32;100.00
53619;BME280;39505;53.040;18.488;2022-10-17T00:42:14;102101.53;;;9.32;100.00
53619;BME280;39505;53.040;18.488;2022-10-17T00:42:26;102105.09;;;9.32;100.00
53619;BME280;39505;53.040;18.488;2022-10-17T00:42:40;102105.09;;;9.32;100.00
53619;BME280;39505;53.040;18.488;2022-10-17T00:42:52;102109.47;;;9.33;100.00
53619;BME280;39505;53.040;18.488;2022-10-17T00:43:11;102102.31;;;9.34;100.00
53619;BME280;39505;53.040;18.488;2022-10-17T00:43:27;102107.66;;;9.34;100.00
53619;BME280;39505;53.040;18.488;2022-10-17T00:43:56;102107.66;;;9.34;100.00
53619;BME280;39505;53.040;18.488;2022-10-17T00:45:15;102104.97;;;9.34;100.00
53619;BME280;39505;53.040;18.488;2022-10-17T00:45:29;102103.28;;;9.33;100.00
53619;BME280;39505;53.040;18.488;2022-10-17T00:45:42;102103.28;;;9.33;100.00
53619;BME280;39505;53.040;18.488;2022-10-17T00:45:55;102100.59;;;9.33;100.00
53619;BME280;39505;53.040;18.488;2022-10-17T00:46:08;102103.28;;;9.33;100.00
53619;BME280;39505;53.040;18.488;2022-10-17T00:46:23;102108.63;;;9.33;100.00
53619;BME280;39505;53.040;18.488;2022-10-17T00:46:37;102098.78;;;9.33;100.00
53619;BME280;39505;53.040;18.488;2022-10-17T00:46:51;102113.97;;;9.33;100.00
53619;BME280;39505;53.040;18.488;2022-10-17T00:47:07;102102.41;;;9.32;100.00
53619;BME280;39505;53.040;18.488;2022-10-17T00:47:21;102096.19;;;9.32;100.00
53619;BME280;39505;53.040;18.488;2022-10-17T00:47:35;102097.06;;;9.32;100.00
53619;BME280;39505;53.040;18.488;2022-10-17T00:47:52;102096.19;;;9.32;100.00
53619;BME280;39505;53.040;18.488;2022-10-17T00:48:08;102100.69;;;9.31;100.00
53619;BME280;39505;53.040;18.488;2022-10-17T00:48:23;102094.47;;;9.31;100.00
53619;BME280;39505;53.040;18.488;2022-10-17T00:48:37;102095.44;;;9.30;100.00
53619;BME280;39505;53.040;18.488;2022-10-17T00:48:52;102096.28;;;9.30;100.00
53619;BME280;39505;53.040;18.488;2022-10-17T00:49:07;102092.75;;;9.30;100.00
53619;BME280;39505;53.040;18.488;2022-10-17T00:49:21;102086.53;;;9.29;100.00
53619;BME280;39505;53.040;18.488;2022-10-17T00:49:35;102098.13;;;9.30;100.00
53619;BME280;39505;53.040;18.488;2022-10-17T00:49:49;102092.75;;;9.30;100.00
53619;BME280;39505;53.040;18.488;2022-10-17T00:50:05;102090.16;;;9.28;100.00
53619;BME280;39505;53.040;18.488;2022-10-17T00:50:18;102096.38;;;9.29;100.00
53619;BME280;39505;53.040;18.488;2022-10-17T00:50:33;102087.56;;;9.27;100.00
53619;BME280;39505;53.040;18.488;2022-10-17T00:50:48;102095.59;;;9.27;100.00
53619;BME280;39505;53.040;18.488;2022-10-17T00:51:03;102101.81;;;9.27;100.00
53619;BME280;39505;53.040;18.488;2022-10-17T00:51:16;102092.94;;;9.27;100.00
53619;BME280;39505;53.040;18.488;2022-10-17T00:51:34;102094.66;;;9.28;100.00
53619;BME280;39505;53.040;18.488;2022-10-17T00:51:51;102093.78;;;9.27;100.00
53619;BME280;39505;53.040;18.488;2022-10-17T00:52:07;102094.66;;;9.28;100.00
53619;BME280;39505;53.040;18.488;2022-10-17T00:52:24;102090.25;;;9.27;100.00
53619;BME280;39505;53.040;18.488;2022-10-17T00:52:39;102089.31;;;9.28;100.00
53619;BME280;39505;53.040;18.488;2022-10-17T00:52:54;102096.38;;;9.29;100.00
53619;BME280;39505;53.040;18.488;2022-10-17T00:53:09;102100.03;;;9.28;100.00
53619;BME280;39505;53.040;18.488;2022-10-17T00:53:22;102096.38;;;9.29;100.00
53619;BME280;39505;53.040;18.488;2022-10-17T00:53:36;102085.75;;;9.27;100.00
53619;BME280;39505;53.040;18.488;2022-10-17T00:53:50;102093.69;;;9.29;100.00
53619;BME280;39505;53.040;18.488;2022-10-17T00:54:03;102094.66;;;9.28;100.00
53619;BME280;39505;53.040;18.488;2022-10-17T00:54:20;102091.03;;;9.29;100.00
53619;BME280;39505;53.040;18.488;2022-10-17T00:54:37;102095.53;;;9.28;100.00
53619;BME280;39505;53.040;18.488;2022-10-17T00:54:54;102088.44;;;9.27;100.00
53619;BME280;39505;53.040;18.488;2022-10-17T00:55:11;102094.56;;;9.29;100.00
53619;BME280;39505;53.040;18.488;2022-10-17T00:55:27;102093.63;;;9.30;100.00
53619;BME280;39505;53.040;18.488;2022-10-17T00:55:47;102088.34;;;9.29;100.00
53619;BME280;39505;53.040;18.488;2022-10-17T00:56:02;102089.13;;;9.31;100.00
53619;BME280;39505;53.040;18.488;2022-10-17T00:56:15;102083.75;;;9.31;100.00
53619;BME280;39505;53.040;18.488;2022-10-17T00:56:28;102094.47;;;9.31;100.00
53619;BME280;39505;53.040;18.488;2022-10-17T00:56:42;102087.22;;;9.33;100.00
53619;BME280;39505;53.040;18.488;2022-10-17T00:56:58;102085.47;;;9.32;100.00
53619;BME280;39505;53.040;18.488;2022-10-17T00:57:11;102080.13;;;9.32;100.00
53619;BME280;39505;53.040;18.488;2022-10-17T00:57:26;102083.69;;;9.32;100.00
53619;BME280;39505;53.040;18.488;2022-10-17T00:57:41;102081.88;;;9.33;100.00
53619;BME280;39505;53.040;18.488;2022-10-17T00:57:56;102082.72;;;9.33;100.00
53619;BME280;39505;53.040;18.488;2022-10-17T00:58:09;102076.50;;;9.33;100.00
53619;BME280;39505;53.040;18.488;2022-10-17T00:58:22;102075.53;;;9.34;100.00
53619;BME280;39505;53.040;18.488;2022-10-17T00:58:35;102076.50;;;9.33;100.00
53619;BME280;39505;53.040;18.488;2022-10-17T00:58:48;102075.53;;;9.34;100.00
53619;BME280;39505;53.040;18.488;2022-10-17T00:59:01;102071.16;;;9.33;100.00
53619;BME280;39505;53.040;18.488;2022-10-17T00:59:15;102073.84;;;9.33;100.00
53619;BME280;39505;53.040;18.488;2022-10-17T00:59:31;102068.47;;;9.33;100.00
53619;BME280;39505;53.040;18.488;2022-10-17T00:59:48;102069.41;;;9.32;100.00
53619;BME280;39505;53.040;18.488;2022-10-17T01:00:07;102074.78;;;9.32;100.00
53619;BME280;39505;53.040;18.488;2022-10-17T01:00:23;102073.06;;;9.31;100.00
53619;BME280;39505;53.040;18.488;2022-10-17T01:00:36;102071.34;;;9.30;100.00
53619;BME280;39505;53.040;18.488;2022-10-17T01:00:49;102073.16;;;9.29;100.00
53619;BME280;39505;53.040;18.488;2022-10-17T01:01:03;102072.28;;;9.29;100.00
53619;BME280;39505;53.040;18.488;2022-10-17T01:01:16;102074.97;;;9.29;100.00
53619;BME280;39505;53.040;18.488;2022-10-17T01:01:29;102071.53;;;9.27;100.00
53619;BME280;39505;53.040;18.488;2022-10-17T01:01:47;102072.50;;;9.26;100.00
53619;BME280;39505;53.040;18.488;2022-10-17T01:02:05;102079.63;;;9.25;100.00
53619;BME280;39505;53.040;18.488;2022-10-17T01:02:20;102073.44;;;9.24;100.00
53619;BME280;39505;53.040;18.488;2022-10-17T01:02:33;102075.25;;;9.24;100.00
53619;BME280;39505;53.040;18.488;2022-10-17T01:02:47;102077.06;;;9.23;100.00
53619;BME280;39505;53.040;18.488;2022-10-17T01:03:00;102075.25;;;9.24;100.00
53619;BME280;39505;53.040;18.488;2022-10-17T01:03:13;102077.06;;;9.23;100.00
53619;BME280;39505;53.040;18.488;2022-10-17T01:03:26;102082.41;;;9.23;100.00
53619;BME280;39505;53.040;18.488;2022-10-17T01:03:39;102078.00;;;9.22;100.00
53619;BME280;39505;53.040;18.488;2022-10-17T01:03:51;102083.34;;;9.22;100.00
53619;BME280;39505;53.040;18.488;2022-10-17T01:04:04;102084.31;;;9.21;100.00
53619;BME280;39505;53.040;18.488;2022-10-17T01:04:18;102081.66;;;9.21;100.00
53619;BME280;39505;53.040;18.488;2022-10-17T01:04:31;102079.91;;;9.20;100.00
53619;BME280;39505;53.040;18.488;2022-10-17T01:04:45;102079.06;;;9.20;100.00
53619;BME280;39505;53.040;18.488;2022-10-17T01:04:59;102084.31;;;9.21;100.00
53619;BME280;39505;53.040;18.488;2022-10-17T01:05:13;102086.16;;;9.21;100.00
53619;BME280;39505;53.040;18.488;2022-10-17T01:05:27;102092.34;;;9.21;100.00
53619;BME280;39505;53.040;18.488;2022-10-17T01:05:41;102083.47;;;9.21;100.00
53619;BME280;39505;53.040;18.488;2022-10-17T01:05:56;102095.03;;;9.21;100.00
53619;BME280;39505;53.040;18.488;2022-10-17T01:06:08;102094.06;;;9.22;100.00
53619;BME280;39505;53.040;18.488;2022-10-17T01:06:21;102087.94;;;9.20;100.00
53619;BME280;39505;53.040;18.488;2022-10-17T01:06:34;102093.28;;;9.20;100.00
53619;BME280;39505;53.040;18.488;2022-10-17T01:06:46;102091.50;;;9.21;100.00
53619;BME280;39505;53.040;18.488;2022-10-17T01:06:59;102095.97;;;9.20;100.00
53619;BME280;39505;53.040;18.488;2022-10-17T01:07:12;102092.44;;;9.20;100.00
53619;BME280;39505;53.040;18.488;2022-10-17T01:07:25;102089.69;;;9.21;100.00
53619;BME280;39505;53.040;18.488;2022-10-17T01:07:47;102094.91;;;9.23;100.00
53619;BME280;39505;53.040;18.488;2022-10-17T01:08:01;102091.31;;;9.24;100.00
53619;BME280;39505;53.040;18.488;2022-10-17T01:08:14;102092.16;;;9.24;100.00
53619;BME280;39505;53.040;18.488;2022-10-17T01:08:27;102094.81;;;9.24;100.00
53619;BME280;39505;53.040;18.488;2022-10-17T01:08:40;102086.81;;;9.24;100.00
53619;BME280;39505;53.040;18.488;2022-10-17T01:08:54;102092.06;;;9.26;100.00
53619;BME280;39505;53.040;18.488;2022-10-17T01:09:07;102081.38;;;9.26;100.00
53619;BME280;39505;53.040;18.488;2022-10-17T01:09:20;102088.44;;;9.27;100.00
53619;BME280;39505;53.040;18.488;2022-10-17T01:09:33;102088.44;;;9.27;100.00
53619;BME280;39505;53.040;18.488;2022-10-17T01:09:47;102088.34;;;9.29;100.00
53619;BME280;39505;53.040;18.488;2022-10-17T01:10:00;102098.13;;;9.30;100.00
53619;BME280;39505;53.040;18.488;2022-10-17T01:10:13;102090.94;;;9.30;100.00
53619;BME280;39505;53.040;18.488;2022-10-17T01:10:30;102087.28;;;9.31;100.00
53619;BME280;39505;53.040;18.488;2022-10-17T01:10:51;102095.25;;;9.33;100.00
53619;BME280;39505;53.040;18.488;2022-10-17T01:11:20;102093.34;;;9.35;100.00
53619;BME280;39505;53.040;18.488;2022-10-17T01:11:38;102088.84;;;9.35;100.00
53619;BME280;39505;53.040;18.488;2022-10-17T01:11:58;102090.66;;;9.35;100.00
53619;BME280;39505;53.040;18.488;2022-10-17T01:12:20;102094.13;;;9.37;100.00
53619;BME280;39505;53.040;18.488;2022-10-17T01:12:41;102094.88;;;9.39;100.00
53619;BME280;39505;53.040;18.488;2022-10-17T01:13:05;102092.19;;;9.39;100.00
53619;BME280;39505;53.040;18.488;2022-10-17T01:13:26;102093.91;;;9.40;100.00
53619;BME280;39505;53.040;18.488;2022-10-17T01:13:45;102093.91;;;9.40;100.00
53619;BME280;39505;53.040;18.488;2022-10-17T01:14:03;102099.28;;;9.40;100.00
53619;BME280;39505;53.040;18.488;2022-10-17T01:14:23;102092.13;;;9.40;100.00
53619;BME280;39505;53.040;18.488;2022-10-17T01:14:45;102101.94;;;9.40;100.00